createdAt,value
2019-03-27T00:00:02.152Z,96314.44
2019-03-27T00:02:34.308Z,96313.59
2019-03-27T00:05:05.168Z,96310.80
2019-03-27T00:07:35.555Z,96312.92
2019-03-27T00:10:07.880Z,96305.20
2019-03-27T00:12:38.606Z,96308.69
2019-03-27T00:15:13.292Z,96310.42
2019-03-27T00:17:42.536Z,96314.02
2019-03-27T00:20:13.715Z,96310.94
2019-03-27T00:22:44.183Z,96315.50
2019-03-27T00:25:14.847Z,96309.56
2019-03-27T00:27:45.397Z,96313.64
2019-03-27T00:30:16.126Z,96319.88
2019-03-27T00:32:46.560Z,96315.98
2019-03-27T00:35:17.011Z,96315.66
2019-03-27T00:37:47.679Z,96315.11
2019-03-27T00:40:18.314Z,96319.13
2019-03-27T00:42:48.889Z,96317.31
2019-03-27T00:45:26.615Z,96317.38
2019-03-27T00:47:51.725Z,96321.05
2019-03-27T00:50:22.184Z,96317.10
2019-03-27T00:52:52.720Z,96312.34
2019-03-27T00:55:23.219Z,96311.83
2019-03-27T00:57:53.640Z,96308.77
2019-03-27T01:00:31.163Z,96312.52
2019-03-27T01:03:01.640Z,96310.84
2019-03-27T01:05:32.083Z,96311.48
2019-03-27T01:08:02.599Z,96312.09
2019-03-27T01:10:33.139Z,96307.75
2019-03-27T01:13:03.691Z,96311.17
2019-03-27T01:15:39.854Z,96309.08
2019-03-27T01:18:06.550Z,96311.98
2019-03-27T01:20:37.973Z,96309.03
2019-03-27T01:23:08.474Z,96298.92
2019-03-27T01:25:38.844Z,96302.72
2019-03-27T01:28:09.308Z,96294.41
2019-03-27T01:30:39.803Z,96304.55
2019-03-27T01:33:10.285Z,96294.34
2019-03-27T01:35:41.924Z,96297.83
2019-03-27T01:38:12.854Z,96294.14
2019-03-27T01:40:43.433Z,96295.24
2019-03-27T01:43:14.019Z,96294.95
2019-03-27T01:45:53.025Z,96292.16
2019-03-27T01:48:17.759Z,96294.50
2019-03-27T01:50:48.314Z,96297.66
2019-03-27T01:53:18.705Z,96297.16
2019-03-27T01:55:49.246Z,96298.45
2019-03-27T01:58:19.906Z,96298.36
2019-03-27T02:00:50.348Z,96297.49
2019-03-27T02:03:20.732Z,96305.06
2019-03-27T02:05:51.174Z,96301.34
2019-03-27T02:08:21.633Z,96308.23
2019-03-27T02:10:52.206Z,96305.35
2019-03-27T02:13:22.736Z,96309.28
2019-03-27T02:16:05.894Z,96307.53
2019-03-27T02:18:25.357Z,96314.15
2019-03-27T02:20:55.877Z,96313.78
2019-03-27T02:23:26.492Z,96309.00
2019-03-27T02:25:57.058Z,96303.73
2019-03-27T02:28:27.587Z,96302.98
2019-03-27T02:30:58.115Z,96303.66
2019-03-27T02:33:28.796Z,96305.21
2019-03-27T02:35:59.346Z,96310.04
2019-03-27T02:38:30.949Z,96314.92
2019-03-27T02:41:01.469Z,96311.84
2019-03-27T02:43:31.969Z,96308.59
2019-03-27T02:46:02.506Z,96306.63
2019-03-27T02:48:33.083Z,96309.05
2019-03-27T02:51:03.508Z,96314.77
2019-03-27T02:53:33.945Z,96312.08
2019-03-27T02:56:04.573Z,96313.83
2019-03-27T02:58:35.161Z,96314.59
2019-03-27T03:01:05.677Z,96317.80
2019-03-27T03:03:36.235Z,96320.62
2019-03-27T03:06:06.766Z,96313.92
2019-03-27T03:08:37.388Z,96310.53
2019-03-27T03:11:08.068Z,96308.48
2019-03-27T03:13:38.622Z,96312.45
2019-03-27T03:16:09.387Z,96309.57
2019-03-27T03:18:39.830Z,96309.63
2019-03-27T03:21:10.221Z,96308.72
2019-03-27T03:23:40.867Z,96309.54
2019-03-27T03:26:11.417Z,96303.34
2019-03-27T03:28:41.902Z,96303.84
2019-03-27T03:31:12.357Z,96298.14
2019-03-27T03:33:42.808Z,96303.48
2019-03-27T03:36:14.401Z,96298.38
2019-03-27T03:38:44.966Z,96307.49
2019-03-27T03:41:15.662Z,96311.27
2019-03-27T03:43:46.175Z,96310.91
2019-03-27T03:46:16.755Z,96307.11
2019-03-27T03:48:47.216Z,96308.16
2019-03-27T03:51:17.902Z,96310.23
2019-03-27T03:53:48.733Z,96306.92
2019-03-27T03:56:21.672Z,96302.41
2019-03-27T03:58:52.787Z,96308.30
2019-03-27T04:01:25.485Z,96308.09
2019-03-27T04:03:57.959Z,96312.09
2019-03-27T04:06:28.372Z,96310.84
2019-03-27T04:08:58.905Z,96322.13
2019-03-27T04:11:29.419Z,96316.44
2019-03-27T04:14:00.838Z,96314.87
2019-03-27T04:16:31.449Z,96316.20
2019-03-27T04:19:01.898Z,96321.66
2019-03-27T04:21:32.337Z,96319.17
2019-03-27T04:24:02.971Z,96328.80
2019-03-27T04:26:33.812Z,96324.50
2019-03-27T04:29:04.346Z,96321.23
2019-03-27T04:31:34.951Z,96326.61
2019-03-27T04:34:05.349Z,96325.63
2019-03-27T04:36:35.793Z,96320.58
2019-03-27T04:39:07.165Z,96320.02
2019-03-27T04:41:37.712Z,96324.08
2019-03-27T04:44:08.417Z,96327.84
2019-03-27T04:46:38.863Z,96335.78
2019-03-27T04:49:09.345Z,96329.91
2019-03-27T04:51:39.918Z,96325.22
2019-03-27T04:54:10.441Z,96330.38
2019-03-27T04:56:40.936Z,96328.80
2019-03-27T04:59:11.426Z,96331.35
2019-03-27T05:01:41.955Z,96332.11
2019-03-27T05:04:12.457Z,96330.73
2019-03-27T05:06:42.941Z,96329.64
2019-03-27T05:09:13.515Z,96333.64
2019-03-27T05:11:43.994Z,96336.15
2019-03-27T05:14:14.527Z,96339.02
2019-03-27T05:16:44.987Z,96344.79
2019-03-27T05:19:15.512Z,96347.92
2019-03-27T05:21:45.956Z,96352.24
2019-03-27T05:24:16.523Z,96353.64
2019-03-27T05:26:46.973Z,96356.39
2019-03-27T05:29:18.588Z,96354.95
2019-03-27T05:31:49.159Z,96359.16
2019-03-27T05:34:19.645Z,96367.67
2019-03-27T05:36:50.089Z,96368.30
2019-03-27T05:39:20.589Z,96370.02
2019-03-27T05:41:51.111Z,96371.28
2019-03-27T05:44:21.713Z,96371.86
2019-03-27T05:46:52.232Z,96374.41
2019-03-27T05:49:22.738Z,96367.21
2019-03-27T05:51:53.229Z,96371.40
2019-03-27T05:54:23.724Z,96375.34
2019-03-27T05:56:54.168Z,96373.58
2019-03-27T05:59:24.618Z,96378.25
2019-03-27T06:01:55.111Z,96384.23
2019-03-27T06:04:25.793Z,96381.13
2019-03-27T06:06:56.172Z,96385.41
2019-03-27T06:09:26.636Z,96385.66
2019-03-27T06:11:57.083Z,96382.06
2019-03-27T06:14:27.681Z,96380.00
2019-03-27T06:16:58.247Z,96393.12
2019-03-27T06:19:28.726Z,96394.97
2019-03-27T06:21:59.248Z,96387.95
2019-03-27T06:24:29.755Z,96388.41
2019-03-27T06:27:00.274Z,96397.95
2019-03-27T06:29:30.836Z,96398.80
2019-03-27T06:32:01.475Z,96395.24
2019-03-27T06:34:31.895Z,96395.71
2019-03-27T06:37:02.393Z,96395.48
2019-03-27T06:39:33.040Z,96391.64
2019-03-27T06:42:03.578Z,96388.67
2019-03-27T06:44:34.024Z,96396.55
2019-03-27T06:47:04.455Z,96389.86
2019-03-27T06:49:35.043Z,96395.49
2019-03-27T06:52:05.556Z,96404.23
2019-03-27T06:54:36.089Z,96394.70
2019-03-27T06:57:06.619Z,96401.50
2019-03-27T06:59:37.115Z,96403.50
2019-03-27T07:02:07.571Z,96406.17
2019-03-27T07:04:38.197Z,96410.91
2019-03-27T07:07:08.703Z,96409.77
2019-03-27T07:09:42.304Z,96419.89
2019-03-27T07:12:21.047Z,96418.17
2019-03-27T07:14:43.630Z,96416.97
2019-03-27T07:17:14.079Z,96424.11
2019-03-27T07:19:44.575Z,96420.73
2019-03-27T07:22:14.980Z,96424.65
2019-03-27T07:24:45.536Z,96415.12
2019-03-27T07:27:15.977Z,96423.55
2019-03-27T07:29:46.488Z,96430.20
2019-03-27T07:32:17.111Z,96428.09
2019-03-27T07:34:47.558Z,96426.02
2019-03-27T07:37:18.009Z,96425.16
2019-03-27T07:39:48.513Z,96432.73
2019-03-27T07:42:19.936Z,96433.05
2019-03-27T07:44:50.590Z,96432.03
2019-03-27T07:47:21.106Z,96440.47
2019-03-27T07:49:51.713Z,96441.94
2019-03-27T07:52:22.153Z,96443.60
2019-03-27T07:54:53.666Z,96443.30
2019-03-27T07:57:24.249Z,96437.91
2019-03-27T07:59:54.862Z,96439.57
2019-03-27T08:02:25.483Z,96442.80
2019-03-27T08:04:56.001Z,96449.73
2019-03-27T08:07:27.302Z,96442.05
2019-03-27T08:09:58.151Z,96440.39
2019-03-27T08:12:28.606Z,96436.18
2019-03-27T08:14:59.099Z,96437.14
2019-03-27T08:17:29.647Z,96440.52
2019-03-27T08:20:00.383Z,96443.36
2019-03-27T08:22:31.014Z,96432.23
2019-03-27T08:25:01.621Z,96441.63
2019-03-27T08:27:32.169Z,96446.64
2019-03-27T08:30:02.998Z,96446.73
2019-03-27T08:32:37.391Z,96447.41
2019-03-27T08:35:07.717Z,96442.69
2019-03-27T08:37:38.180Z,96450.84
2019-03-27T08:40:10.293Z,96455.84
2019-03-27T08:42:40.835Z,96453.62
2019-03-27T08:45:12.453Z,96446.86
2019-03-27T08:47:42.976Z,96450.30
2019-03-27T08:50:13.768Z,96457.48
2019-03-27T08:52:44.398Z,96455.83
2019-03-27T08:55:15.313Z,96460.36
2019-03-27T08:57:45.775Z,96467.45
2019-03-27T09:00:21.422Z,96460.69
2019-03-27T09:02:52.043Z,96464.72
2019-03-27T09:05:22.706Z,96465.05
2019-03-27T09:07:53.204Z,96464.58
2019-03-27T09:10:23.775Z,96469.75
2019-03-27T09:12:54.213Z,96471.53
2019-03-27T09:15:24.704Z,96470.55
2019-03-27T09:17:55.292Z,96471.50
2019-03-27T09:20:25.809Z,96478.79
2019-03-27T09:22:56.437Z,96475.69
2019-03-27T09:25:26.975Z,96476.75
2019-03-27T09:27:57.764Z,96479.64
2019-03-27T09:30:28.274Z,96477.90
2019-03-27T09:32:58.811Z,96482.09
2019-03-27T09:35:29.264Z,96485.53
2019-03-27T09:37:59.746Z,96488.09
2019-03-27T09:40:30.364Z,96491.94
2019-03-27T09:43:00.917Z,96496.99
2019-03-27T09:45:31.431Z,96495.46
2019-03-27T09:48:02.236Z,96488.09
2019-03-27T09:50:32.734Z,96493.48
2019-03-27T09:53:03.335Z,96492.50
2019-03-27T09:55:33.848Z,96490.97
2019-03-27T09:58:04.482Z,96492.45
2019-03-27T10:00:57.965Z,96500.25
2019-03-27T10:03:28.520Z,96497.93
2019-03-27T10:05:59.191Z,96500.39
2019-03-27T10:08:29.817Z,96490.52
2019-03-27T10:11:01.361Z,96493.50
2019-03-27T10:13:31.948Z,96489.59
2019-03-27T10:16:02.715Z,96494.87
2019-03-27T10:18:33.317Z,96489.89
2019-03-27T10:21:03.861Z,96482.67
2019-03-27T10:23:34.584Z,96482.04
2019-03-27T10:26:05.257Z,96490.53
2019-03-27T10:28:35.725Z,96490.19
2019-03-27T10:31:06.564Z,96493.56
2019-03-27T10:33:37.242Z,96501.86
2019-03-27T10:36:07.964Z,96490.79
2019-03-27T10:38:41.574Z,96487.59
2019-03-27T10:41:10.624Z,96487.02
2019-03-27T10:43:41.178Z,96494.33
2019-03-27T10:46:11.722Z,96489.51
2019-03-27T10:48:52.562Z,96490.55
2019-03-27T10:51:14.762Z,96492.38
2019-03-27T10:53:45.395Z,96496.95
2019-03-27T10:56:15.987Z,96493.85
2019-03-27T10:58:46.489Z,96491.98
2019-03-27T11:01:17.026Z,96493.45
2019-03-27T11:03:47.523Z,96491.46
2019-03-27T11:06:18.093Z,96499.00
2019-03-27T11:08:48.683Z,96494.48
2019-03-27T11:11:19.202Z,96496.81
2019-03-27T11:13:49.730Z,96495.02
2019-03-27T11:16:20.358Z,96496.92
2019-03-27T11:18:50.807Z,96491.59
2019-03-27T11:21:21.335Z,96499.31
2019-03-27T11:23:51.890Z,96494.98
2019-03-27T11:26:22.518Z,96498.16
2019-03-27T11:28:54.027Z,96496.16
2019-03-27T11:31:25.246Z,96495.13
2019-03-27T11:33:55.734Z,96492.66
2019-03-27T11:36:27.099Z,96491.70
2019-03-27T11:38:57.679Z,96490.33
2019-03-27T11:41:28.318Z,96492.02
2019-03-27T11:43:58.806Z,96490.17
2019-03-27T11:46:32.127Z,96490.14
2019-03-27T11:49:02.011Z,96490.31
2019-03-27T11:51:32.675Z,96493.76
2019-03-27T11:54:03.186Z,96490.34
2019-03-27T11:56:33.883Z,96490.47
2019-03-27T11:59:04.578Z,96488.14
2019-03-27T12:01:40.794Z,96482.36
2019-03-27T12:04:07.506Z,96481.17
2019-03-27T12:06:37.960Z,96483.10
2019-03-27T12:09:08.798Z,96478.81
2019-03-27T12:11:39.297Z,96484.15
2019-03-27T12:14:12.246Z,96476.23
2019-03-27T12:16:42.099Z,96476.77
2019-03-27T12:19:12.634Z,96471.93
2019-03-27T12:21:43.213Z,96474.28
2019-03-27T12:24:13.855Z,96475.62
2019-03-27T12:26:44.395Z,96478.03
2019-03-27T12:29:18.029Z,96473.98
2019-03-27T12:31:47.014Z,96476.55
2019-03-27T12:34:17.516Z,96469.69
2019-03-27T12:36:48.065Z,96470.17
2019-03-27T12:39:18.490Z,96463.05
2019-03-27T12:41:48.982Z,96467.07
2019-03-27T12:44:19.585Z,96459.84
2019-03-27T12:46:51.911Z,96459.31
2019-03-27T12:49:22.400Z,96454.95
2019-03-27T12:51:52.848Z,96458.59
2019-03-27T12:54:23.318Z,96456.12
2019-03-27T12:56:53.858Z,96457.54
2019-03-27T12:59:24.388Z,96458.83
2019-03-27T13:01:54.931Z,96464.66
2019-03-27T13:04:25.475Z,96456.26
2019-03-27T13:06:56.032Z,96459.30
2019-03-27T13:09:26.588Z,96458.95
2019-03-27T13:11:57.031Z,96457.66
2019-03-27T13:14:27.595Z,96456.37
2019-03-27T13:16:58.082Z,96458.56
2019-03-27T13:19:29.518Z,96459.78
2019-03-27T13:22:01.039Z,96456.56
2019-03-27T13:24:31.610Z,96459.08
2019-03-27T13:27:02.063Z,96452.25
2019-03-27T13:29:32.464Z,96453.77
2019-03-27T13:32:02.966Z,96447.94
2019-03-27T13:34:33.430Z,96441.55
2019-03-27T13:37:04.133Z,96446.20
2019-03-27T13:39:34.598Z,96446.50
2019-03-27T13:42:05.731Z,96443.19
2019-03-27T13:44:37.528Z,96443.66
2019-03-27T13:47:08.417Z,96439.38
2019-03-27T13:49:39.094Z,96442.05
2019-03-27T13:52:09.628Z,96444.40
2019-03-27T13:54:40.096Z,96441.10
2019-03-27T13:57:10.724Z,96443.00
2019-03-27T13:59:41.280Z,96445.81
2019-03-27T14:02:11.854Z,96443.40
2019-03-27T14:04:42.629Z,96438.07
2019-03-27T14:07:13.235Z,96443.89
2019-03-27T14:09:43.899Z,96437.62
2019-03-27T14:12:14.405Z,96438.36
2019-03-27T14:14:50.565Z,96441.48
2019-03-27T14:17:17.241Z,96437.22
2019-03-27T14:19:47.732Z,96440.92
2019-03-27T14:22:18.335Z,96449.66
2019-03-27T14:24:48.817Z,96446.30
2019-03-27T14:27:19.351Z,96440.38
2019-03-27T14:29:49.932Z,96438.45
2019-03-27T14:32:20.454Z,96443.75
2019-03-27T14:34:53.741Z,96447.52
2019-03-27T14:37:23.240Z,96438.28
2019-03-27T14:39:53.741Z,96432.66
2019-03-27T14:42:24.648Z,96433.63
2019-03-27T14:44:55.221Z,96445.33
2019-03-27T14:47:25.831Z,96437.95
2019-03-27T14:49:56.336Z,96439.25
2019-03-27T14:52:26.877Z,96438.74
2019-03-27T14:54:57.328Z,96444.19
2019-03-27T14:57:27.945Z,96439.86
2019-03-27T14:59:58.512Z,96442.59
2019-03-27T15:02:28.917Z,96439.55
2019-03-27T15:04:59.441Z,96441.81
2019-03-27T15:07:29.977Z,96438.61
2019-03-27T15:10:00.504Z,96434.27
2019-03-27T15:12:31.124Z,96431.40
2019-03-27T15:15:01.741Z,96441.48
2019-03-27T15:17:32.213Z,96436.05
2019-03-27T15:20:02.776Z,96431.06
2019-03-27T15:22:33.334Z,96432.03
2019-03-27T15:25:03.982Z,96431.38
2019-03-27T15:27:35.631Z,96435.55
2019-03-27T15:30:07.752Z,96429.46
2019-03-27T15:32:43.939Z,96431.23
2019-03-27T15:35:14.566Z,96437.48
2019-03-27T15:37:45.111Z,96434.92
2019-03-27T15:40:17.639Z,96438.12
2019-03-27T15:42:48.330Z,96432.52
2019-03-27T15:45:18.940Z,96433.14
2019-03-27T15:47:49.578Z,96438.25
2019-03-27T15:50:20.146Z,96428.66
2019-03-27T15:52:53.808Z,96429.89
2019-03-27T15:55:24.284Z,96425.25
2019-03-27T15:57:54.839Z,96429.89
2019-03-27T16:00:25.746Z,96429.09
2019-03-27T16:02:56.390Z,96431.66
2019-03-27T16:05:26.954Z,96430.38
2019-03-27T16:07:57.544Z,96428.48
2019-03-27T16:10:28.039Z,96436.31
2019-03-27T16:12:58.637Z,96435.20
2019-03-27T16:15:29.207Z,96438.40
2019-03-27T16:17:59.727Z,96444.77
2019-03-27T16:20:30.224Z,96441.27
2019-03-27T16:23:00.834Z,96438.85
2019-03-27T16:25:31.316Z,96436.45
2019-03-27T16:28:01.874Z,96445.91
2019-03-27T16:30:32.351Z,96440.64
2019-03-27T16:33:02.801Z,96433.73
2019-03-27T16:35:33.319Z,96442.09
2019-03-27T16:38:03.874Z,96440.33
2019-03-27T16:40:48.137Z,96443.05
2019-03-27T16:43:19.274Z,96439.21
2019-03-27T16:45:51.776Z,96446.88
2019-03-27T16:48:23.355Z,96445.75
2019-03-27T16:50:55.583Z,96446.69
2019-03-27T16:53:26.122Z,96442.20
2019-03-27T16:55:56.602Z,96452.95
2019-03-27T16:58:27.225Z,96452.95
2019-03-27T17:00:57.780Z,96450.32
2019-03-27T17:03:28.320Z,96449.98
2019-03-27T17:05:58.902Z,96456.09
2019-03-27T17:08:29.489Z,96453.50
2019-03-27T17:11:00.091Z,96453.32
2019-03-27T17:13:30.781Z,96459.40
2019-03-27T17:16:01.230Z,96463.22
2019-03-27T17:18:31.761Z,96464.95
2019-03-27T17:21:03.289Z,96474.06
2019-03-27T17:23:33.817Z,96473.03
2019-03-27T17:26:04.254Z,96478.63
2019-03-27T17:28:34.731Z,96479.91
2019-03-27T17:31:05.399Z,96487.44
2019-03-27T17:33:35.910Z,96482.47
2019-03-27T17:36:06.556Z,96495.27
2019-03-27T17:38:37.067Z,96492.86
2019-03-27T17:41:07.831Z,96493.81
2019-03-27T17:43:40.022Z,96501.19
2019-03-27T17:46:10.569Z,96503.72
2019-03-27T17:48:41.078Z,96508.50
2019-03-27T17:51:12.715Z,96507.58
2019-03-27T17:53:43.264Z,96507.94
2019-03-27T17:56:13.848Z,96509.52
2019-03-27T17:58:44.366Z,96509.52
2019-03-27T18:01:14.913Z,96509.66
2019-03-27T18:03:45.395Z,96509.74
2019-03-27T18:06:15.841Z,96514.77
2019-03-27T18:08:46.530Z,96511.34
2019-03-27T18:11:16.997Z,96508.97
2019-03-27T18:13:47.429Z,96511.20
2019-03-27T18:16:17.892Z,96516.30
2019-03-27T18:18:48.564Z,96521.15
2019-03-27T18:21:21.255Z,96513.59
2019-03-27T18:23:51.176Z,96517.37
2019-03-27T18:26:21.734Z,96524.39
2019-03-27T18:28:52.323Z,96525.81
2019-03-27T18:31:23.039Z,96527.72
2019-03-27T18:33:53.548Z,96527.67
2019-03-27T18:36:24.020Z,96528.41
2019-03-27T18:38:54.488Z,96533.16
2019-03-27T18:41:25.016Z,96540.17
2019-03-27T18:43:55.930Z,96536.81
2019-03-27T18:46:26.587Z,96542.40
2019-03-27T18:48:57.042Z,96545.14
2019-03-27T18:51:27.593Z,96547.63
2019-03-27T18:53:59.830Z,96545.43
2019-03-27T18:56:30.525Z,96547.43
2019-03-27T18:59:01.027Z,96546.01
2019-03-27T19:01:31.648Z,96558.28
2019-03-27T19:04:02.097Z,96560.03
2019-03-27T19:06:32.909Z,96562.25
2019-03-27T19:09:04.252Z,96560.32
2019-03-27T19:11:34.991Z,96560.42
2019-03-27T19:14:07.094Z,96565.28
2019-03-27T19:16:37.593Z,96561.92
2019-03-27T19:19:08.381Z,96569.59
2019-03-27T19:21:39.977Z,96567.97
2019-03-27T19:24:16.163Z,96568.81
2019-03-27T19:26:42.661Z,96570.23
2019-03-27T19:29:13.216Z,96567.42
2019-03-27T19:31:43.690Z,96570.50
2019-03-27T19:34:14.412Z,96570.17
2019-03-27T19:36:44.908Z,96565.92
2019-03-27T19:39:15.441Z,96564.17
2019-03-27T19:41:46.035Z,96569.97
2019-03-27T19:44:16.533Z,96571.80
2019-03-27T19:46:47.117Z,96570.52
2019-03-27T19:49:17.595Z,96569.78
2019-03-27T19:51:48.096Z,96570.30
2019-03-27T19:54:26.968Z,96571.34
2019-03-27T19:56:53.020Z,96572.20
2019-03-27T19:59:22.915Z,96574.77
2019-03-27T20:01:53.401Z,96580.02
2019-03-27T20:04:24.079Z,96586.27
2019-03-27T20:06:55.491Z,96591.23
2019-03-27T20:09:25.977Z,96588.25
2019-03-27T20:11:56.568Z,96585.87
2019-03-27T20:14:27.173Z,96588.63
2019-03-27T20:16:57.749Z,96587.88
2019-03-27T20:19:28.229Z,96582.24
2019-03-27T20:21:58.819Z,96585.17
2019-03-27T20:24:40.434Z,96588.86
2019-03-27T20:27:01.654Z,96583.98
2019-03-27T20:29:32.191Z,96586.87
2019-03-27T20:32:02.763Z,96591.22
2019-03-27T20:34:33.236Z,96587.81
2019-03-27T20:37:03.701Z,96598.25
2019-03-27T20:39:34.442Z,96597.98
2019-03-27T20:42:05.125Z,96600.13
2019-03-27T20:44:35.719Z,96597.38
2019-03-27T20:47:06.262Z,96595.27
2019-03-27T20:49:36.760Z,96591.12
2019-03-27T20:52:07.353Z,96595.44
2019-03-27T20:54:37.790Z,96588.38
2019-03-27T20:57:08.326Z,96593.69
2019-03-27T20:59:38.823Z,96588.24
2019-03-27T21:02:09.515Z,96592.22
2019-03-27T21:04:40.055Z,96595.02
2019-03-27T21:07:11.629Z,96592.69
2019-03-27T21:09:42.103Z,96592.91
2019-03-27T21:12:12.598Z,96596.27
2019-03-27T21:14:43.151Z,96598.69
2019-03-27T21:17:13.842Z,96596.71
2019-03-27T21:19:44.388Z,96593.05
2019-03-27T21:22:15.126Z,96592.22
2019-03-27T21:24:45.603Z,96588.33
2019-03-27T21:27:16.953Z,96588.33
2019-03-27T21:29:47.426Z,96591.88
2019-03-27T21:32:18.009Z,96594.50
2019-03-27T21:34:48.616Z,96593.05
2019-03-27T21:37:19.195Z,96594.52
2019-03-27T21:39:49.675Z,96598.13
2019-03-27T21:42:20.233Z,96597.02
2019-03-27T21:44:50.610Z,96594.27
2019-03-27T21:47:21.298Z,96589.02
2019-03-27T21:49:51.747Z,96600.14
2019-03-27T21:52:22.141Z,96593.59
2019-03-27T21:54:52.611Z,96603.11
2019-03-27T21:57:23.325Z,96598.76
2019-03-27T21:59:53.986Z,96592.98
2019-03-27T22:02:24.665Z,96600.73
2019-03-27T22:04:55.217Z,96604.56
2019-03-27T22:07:25.762Z,96603.88
2019-03-27T22:09:56.366Z,96602.30
2019-03-27T22:12:26.883Z,96603.92
2019-03-27T22:14:57.462Z,96599.15
2019-03-27T22:17:27.904Z,96603.51
2019-03-27T22:19:58.508Z,96607.56
2019-03-27T22:22:29.025Z,96598.82
2019-03-27T22:24:59.471Z,96602.63
2019-03-27T22:27:29.902Z,96609.76
2019-03-27T22:30:00.406Z,96610.84
2019-03-27T22:32:30.972Z,96598.95
2019-03-27T22:35:01.473Z,96605.17
2019-03-27T22:37:32.061Z,96601.90
2019-03-27T22:40:02.528Z,96603.78
2019-03-27T22:42:33.125Z,96606.55
2019-03-27T22:45:06.683Z,96601.38
2019-03-27T22:47:37.308Z,96601.48
2019-03-27T22:50:08.664Z,96605.39
2019-03-27T22:52:39.351Z,96613.78
2019-03-27T22:55:10.393Z,96607.80
2019-03-27T22:57:40.924Z,96609.00
2019-03-27T23:00:13.376Z,96604.20
2019-03-27T23:02:45.755Z,96603.91
2019-03-27T23:05:16.202Z,96600.97
2019-03-27T23:07:46.891Z,96597.95
2019-03-27T23:10:17.405Z,96600.89
2019-03-27T23:12:48.131Z,96604.11
2019-03-27T23:15:18.690Z,96603.78
2019-03-27T23:17:49.122Z,96602.37
2019-03-27T23:20:19.755Z,96605.33
2019-03-27T23:22:50.249Z,96606.08
2019-03-27T23:25:22.936Z,96605.08
2019-03-27T23:27:53.602Z,96608.34
2019-03-27T23:30:24.085Z,96601.42
2019-03-27T23:32:54.663Z,96604.78
2019-03-27T23:35:25.215Z,96599.02
2019-03-27T23:37:55.635Z,96595.85
2019-03-27T23:40:26.265Z,96603.17
2019-03-27T23:42:56.755Z,96605.48
2019-03-27T23:45:27.202Z,96602.58
2019-03-27T23:47:58.014Z,96604.66
2019-03-27T23:50:28.536Z,96597.05
2019-03-27T23:52:59.065Z,96600.21
2019-03-27T23:55:29.497Z,96599.20
2019-03-27T23:58:00.084Z,96596.05
